Weather History for KMCD - October, 2013

Change the Weather History Date:

Tuesday, October 1, 2013

  Actual Average Record
Temperature  
Mean Temperature 64 °F -  
Max Temperature 74 °F 57 °F 75 °F (1996)
Min Temperature 55 °F 44 °F 32 °F (1993)
Growing Degree Days 14 (Base 50)    
Moisture  
Dew Point 56 °F    
Average Humidity 77    
Maximum Humidity 97    
Minimum Humidity 56    
Precipitation  
Precipitation 0.00 in - - ()
Sea Level Pressure  
Sea Level Pressure 29.79 in    
Wind  
Wind Speed 10 mph (SSW)    
Max Wind Speed 21 mph    
Max Gust Speed 32 mph    
Visibility 10 miles    
Events      
Averages and records for this station are not official NWS values.
T = Trace of Precipitation, MM = Missing Value Source: NWS Daily Summary

Daily Weather History Graph

Daily Weather History Graph

Search for Another Location

Airport or City:

Trip Planner

Search our weather history database for the weather conditions in past years. The results will help you decide how hot, cold, wet, or windy it might be!

Date:

Astronomy

Oct. 01, 2013 Rise Set
Actual Time 7:37 AM EDT 7:18 PM EDT
Civil Twilight 7:07 AM EDT 7:47 PM EDT
Nautical Twilight 6:32 AM EDT 8:22 PM EDT
Astronomical Twilight 5:57 AM EDT 8:57 PM EDT
Moon 4:01 AM EDT (10/1) 5:28 PM EDT (10/1)
Length of Visible Light 12h 40m
Length of Day
11h 40m
Waning Crescent, 12% of the Moon is Illuminated
Oct 1
Waning Crescent
Oct 4
New
Oct 11
First Quarter
Oct 18
Full
Oct 26
Last Quarter

Hourly Weather History & Observations

Time (EDT) Temp. Dew Point Humidity Pressure Visibility Wind Dir Wind Speed Gust Speed Precip Events Conditions
12:17 AM 58.1 °F 50.5 °F 76% 29.86 in 10.0 mi South 6.9 mph - N/A   Clear
12:38 AM 58.1 °F 50.4 °F 75% 29.85 in 10.0 mi South 5.8 mph - N/A   Clear
12:57 AM 58.1 °F 50.0 °F 74% 29.86 in 10.0 mi SSW 6.9 mph - N/A   Clear
1:17 AM 57.6 °F 50.0 °F 76% 29.87 in 10.0 mi South 6.9 mph - N/A   Clear
1:38 AM 58.5 °F 50.0 °F 73% 29.86 in 10.0 mi South 8.1 mph - N/A   Clear
1:57 AM 58.6 °F 50.0 °F 73% 29.87 in 10.0 mi South 6.9 mph - N/A   Clear
2:17 AM 58.1 °F 50.2 °F 75% 29.86 in 10.0 mi South 9.2 mph - N/A   Clear
2:38 AM 57.6 °F 50.5 °F 77% 29.86 in 10.0 mi South 9.2 mph - N/A   Clear
2:57 AM 57.2 °F 50.5 °F 78% 29.86 in 10.0 mi South 8.1 mph - N/A   Clear
3:17 AM 57.2 °F 50.4 °F 78% 29.85 in 10.0 mi South 8.1 mph - N/A   Clear
3:38 AM 57.2 °F 50.2 °F 77% 29.85 in 10.0 mi South 9.2 mph - N/A   Clear
3:57 AM 56.7 °F 50.2 °F 79% 29.84 in 10.0 mi South 9.2 mph - N/A   Clear
4:18 AM 56.5 °F 50.0 °F 79% 29.84 in 10.0 mi South 9.2 mph - N/A   Clear
4:38 AM 55.9 °F 50.2 °F 81% 29.83 in 10.0 mi South 10.4 mph - N/A   Clear
4:57 AM 55.8 °F 50.4 °F 82% 29.82 in 10.0 mi SSE 8.1 mph - N/A   Clear
5:18 AM 56.1 °F 50.2 °F 80% 29.82 in 10.0 mi South 10.4 mph - N/A   Clear
5:38 AM 57.4 °F 50.0 °F 76% 29.82 in 10.0 mi South 12.7 mph 18.4 mph N/A   Clear
5:57 AM 57.9 °F 50.0 °F 75% 29.82 in 10.0 mi South 11.5 mph 18.4 mph N/A   Clear
6:18 AM 57.4 °F 50.2 °F 77% 29.81 in 10.0 mi South 11.5 mph 16.1 mph N/A   Clear
6:38 AM 57.6 °F 50.5 °F 77% 29.81 in 10.0 mi South 9.2 mph 18.4 mph N/A   Clear
6:57 AM 57.2 °F 50.9 °F 79% 29.81 in 10.0 mi SSE 6.9 mph - N/A   Clear
7:18 AM 56.3 °F 51.1 °F 83% 29.81 in 10.0 mi SSE 5.8 mph - N/A   Clear
7:38 AM 57.2 °F 51.4 °F 81% 29.81 in 10.0 mi South 8.1 mph - N/A   Clear
7:57 AM 57.7 °F 51.6 °F 80% 29.80 in 10.0 mi South 9.2 mph - N/A   Clear
8:18 AM 58.1 °F 51.8 °F 80% 29.80 in 10.0 mi South 9.2 mph - N/A   Clear
8:38 AM 58.5 °F 52.2 °F 80% 29.80 in 10.0 mi SSW 9.2 mph - N/A   Clear
8:58 AM 59.0 °F 52.3 °F 79% 29.80 in 10.0 mi SSW 9.2 mph - N/A   Clear
9:18 AM 59.5 °F 52.7 °F 78% 29.79 in 10.0 mi South 9.2 mph 16.1 mph N/A   Clear
9:37 AM 60.1 °F 53.1 °F 78% 29.79 in 10.0 mi South 11.5 mph 19.6 mph N/A   Clear
9:58 AM 60.6 °F 53.6 °F 78% 29.78 in 10.0 mi South 10.4 mph 18.4 mph N/A   Clear
10:18 AM 61.7 °F 54.1 °F 76% 29.77 in 10.0 mi South 10.4 mph 20.7 mph N/A   Clear
10:37 AM 63.5 °F 55.6 °F 75% 29.78 in 10.0 mi South 11.5 mph 16.1 mph N/A   Clear
10:58 AM 64.4 °F 56.1 °F 74% 29.79 in 10.0 mi South 5.8 mph - N/A   Clear
11:18 AM 65.8 °F 57.0 °F 73% 29.78 in 10.0 mi SSW 4.6 mph - N/A   Clear
11:37 AM 67.3 °F 57.6 °F 71% 29.77 in 10.0 mi SSW 9.2 mph 19.6 mph N/A   Clear
11:58 AM 67.6 °F 57.9 °F 71% 29.76 in 10.0 mi South 9.2 mph - N/A   Clear
12:18 PM 69.1 °F 58.5 °F 69% 29.76 in 10.0 mi SSW 9.2 mph - N/A   Clear
12:37 PM 70.3 °F 58.8 °F 67% 29.75 in 10.0 mi SW 6.9 mph - N/A   Clear
12:58 PM 71.6 °F 59.2 °F 65% 29.75 in 10.0 mi SW 9.2 mph - N/A   Clear
1:18 PM 72.0 °F 58.6 °F 63% 29.74 in 10.0 mi SSW 11.5 mph 16.1 mph N/A   Clear
1:37 PM 73.4 °F 58.8 °F 60% 29.73 in 10.0 mi SSW 10.4 mph 17.3 mph N/A   Clear
1:58 PM 73.6 °F 58.5 °F 59% 29.73 in 10.0 mi SSW 8.1 mph 18.4 mph N/A   Clear
2:17 PM 74.3 °F 57.9 °F 57% 29.72 in 10.0 mi SSW 11.5 mph 19.6 mph N/A   Clear
2:38 PM 73.9 °F 57.2 °F 56% 29.72 in 10.0 mi SW 10.4 mph 18.4 mph N/A   Clear
2:58 PM 72.5 °F 58.6 °F 62% 29.72 in 10.0 mi WSW 12.7 mph - N/A   Clear
3:17 PM 71.4 °F 60.1 °F 67% 29.74 in 10.0 mi West 17.3 mph 25.3 mph N/A   Scattered Clouds
3:38 PM 69.1 °F 59.4 °F 71% 29.73 in 10.0 mi WSW 15.0 mph 26.5 mph N/A   Scattered Clouds
3:58 PM 67.5 °F 59.2 °F 75% 29.73 in 10.0 mi WSW 16.1 mph 26.5 mph N/A   Clear
4:18 PM 67.5 °F 59.5 °F 76% 29.73 in 10.0 mi WSW 17.3 mph 27.6 mph N/A   Clear
4:37 PM 67.3 °F 59.5 °F 76% 29.74 in 10.0 mi WSW 12.7 mph 32.2 mph N/A   Clear
4:58 PM 66.9 °F 60.1 °F 79% 29.74 in 10.0 mi WSW 20.7 mph 32.2 mph N/A   Clear
5:18 PM 66.2 °F 60.3 °F 81% 29.74 in 10.0 mi WSW 15.0 mph 29.9 mph N/A   Clear
5:38 PM 65.7 °F 60.1 °F 82% 29.75 in 10.0 mi WSW 15.0 mph 25.3 mph N/A   Clear
5:58 PM 65.3 °F 60.1 °F 83% 29.75 in 10.0 mi WSW 15.0 mph 25.3 mph N/A   Clear
6:17 PM 65.3 °F 60.1 °F 83% 29.75 in 10.0 mi WSW 16.1 mph 25.3 mph N/A   Clear
6:38 PM 65.7 °F 59.9 °F 82% 29.75 in 10.0 mi WSW 16.1 mph 25.3 mph N/A   Clear
6:58 PM 65.5 °F 59.9 °F 82% 29.76 in 10.0 mi WSW 15.0 mph 27.6 mph N/A   Clear
7:17 PM 64.8 °F 59.9 °F 84% 29.76 in 10.0 mi WSW 11.5 mph 21.9 mph N/A   Clear
7:38 PM 64.4 °F 59.9 °F 85% 29.76 in 10.0 mi WSW 11.5 mph 20.7 mph N/A   Clear
7:58 PM 65.5 °F 59.7 °F 82% 29.76 in 10.0 mi SW 12.7 mph 23.0 mph N/A   Clear
8:18 PM 66.6 °F 59.5 °F 78% 29.77 in 10.0 mi SW 11.5 mph 19.6 mph N/A   Clear
8:38 PM 66.2 °F 59.4 °F 79% 29.77 in 10.0 mi SW 11.5 mph 23.0 mph N/A   Clear
8:58 PM 67.1 °F 59.9 °F 78% 29.77 in 10.0 mi SW 13.8 mph 24.2 mph N/A   Clear
9:18 PM 67.1 °F 59.9 °F 78% 29.78 in 10.0 mi WSW 10.4 mph 21.9 mph N/A   Scattered Clouds
9:38 PM 65.7 °F 60.4 °F 83% 29.79 in 10.0 mi WNW 13.8 mph 20.7 mph N/A   Overcast
9:58 PM 65.3 °F 60.8 °F 85% 29.79 in 10.0 mi West 13.8 mph 21.9 mph N/A   Overcast
10:17 PM 63.5 °F 61.0 °F 91% 29.79 in 7.0 mi West 17.3 mph 24.2 mph N/A   Mostly Cloudy
10:38 PM 63.5 °F 61.3 °F 93% 29.80 in 7.0 mi West 15.0 mph 25.3 mph N/A   Mostly Cloudy
10:58 PM 63.5 °F 61.7 °F 94% 29.80 in 7.0 mi West 13.8 mph 21.9 mph N/A   Overcast
11:18 PM 62.8 °F 61.5 °F 96% 29.81 in 5.0 mi West 8.1 mph 17.3 mph N/A   Mostly Cloudy
11:38 PM 61.9 °F 60.8 °F 96% 29.81 in 5.0 mi WSW 8.1 mph - N/A   Scattered Clouds
11:57 PM 61.2 °F 60.4 °F 97% 29.82 in 4.0 mi WSW 5.8 mph - N/A   Clear